createdAt,value
2018-06-14T00:00:45.025Z,63.50
2018-06-14T00:03:15.319Z,65.37
2018-06-14T00:05:46.124Z,62.97
2018-06-14T00:08:16.713Z,67.13
2018-06-14T00:10:47.064Z,62.83
2018-06-14T00:13:17.719Z,62.53
2018-06-14T00:15:47.857Z,61.90
2018-06-14T00:18:18.486Z,62.33
2018-06-14T00:20:48.744Z,62.90
2018-06-14T00:23:19.782Z,65.57
2018-06-14T00:25:49.972Z,63.67
2018-06-14T00:28:20.210Z,63.30
2018-06-14T00:30:50.714Z,61.03
2018-06-14T00:33:21.327Z,64.23
2018-06-14T00:35:51.557Z,62.23
2018-06-14T00:38:22.082Z,64.07
2018-06-14T00:40:52.724Z,63.23
2018-06-14T00:43:22.889Z,63.67
2018-06-14T00:45:52.989Z,63.37
2018-06-14T00:48:24.229Z,61.10
2018-06-14T00:50:55.176Z,64.60
2018-06-14T00:53:26.983Z,62.17
2018-06-14T00:55:57.457Z,64.57
2018-06-14T00:58:27.867Z,62.17
2018-06-14T01:00:58.012Z,64.80
2018-06-14T01:03:28.338Z,63.83
2018-06-14T01:05:58.724Z,63.37
2018-06-14T01:08:29.612Z,61.30
2018-06-14T01:11:00.128Z,61.97
2018-06-14T01:13:30.341Z,62.13
2018-06-14T01:16:00.533Z,63.23
2018-06-14T01:18:30.938Z,63.80
2018-06-14T01:21:01.148Z,63.60
2018-06-14T01:23:31.386Z,62.00
2018-06-14T01:26:01.644Z,63.90
2018-06-14T01:28:31.703Z,63.10
2018-06-14T01:31:02.262Z,64.07
2018-06-14T01:33:32.737Z,63.70
2018-06-14T01:36:03.573Z,63.30
2018-06-14T01:38:33.919Z,66.87
2018-06-14T01:41:03.985Z,64.47
2018-06-14T01:43:34.197Z,63.90
2018-06-14T01:46:04.571Z,62.37
2018-06-14T01:48:34.952Z,65.03
2018-06-14T01:51:05.207Z,62.03
2018-06-14T01:53:35.568Z,64.50
2018-06-14T01:56:06.456Z,63.97
2018-06-14T01:58:36.610Z,63.37
2018-06-14T02:01:07.072Z,66.83
2018-06-14T02:03:37.707Z,66.77
2018-06-14T02:06:07.937Z,67.97
2018-06-14T02:08:38.297Z,64.47
2018-06-14T02:11:09.145Z,66.70
2018-06-14T02:13:41.149Z,64.33
2018-06-14T02:16:11.348Z,68.23
2018-06-14T02:18:42.520Z,67.90
2018-06-14T02:21:13.142Z,66.83
2018-06-14T02:23:44.272Z,67.00
2018-06-14T02:26:14.538Z,70.20
2018-06-14T02:28:44.834Z,67.87
2018-06-14T02:31:14.989Z,65.93
2018-06-14T02:33:45.216Z,62.10
2018-06-14T02:36:15.590Z,65.07
2018-06-14T02:38:45.682Z,64.33
2018-06-14T02:41:15.859Z,67.80
2018-06-14T02:43:46.372Z,66.07
2018-06-14T02:46:16.809Z,63.23
2018-06-14T02:48:47.338Z,62.80
2018-06-14T02:51:18.739Z,62.40
2018-06-14T02:53:48.908Z,62.77
2018-06-14T02:56:19.230Z,62.40
2018-06-14T02:58:49.341Z,62.33
2018-06-14T03:01:20.308Z,62.60
2018-06-14T03:03:50.641Z,62.43
2018-06-14T03:06:20.938Z,64.37
2018-06-14T03:08:51.245Z,61.90
2018-06-14T03:11:21.231Z,61.03
2018-06-14T03:13:51.533Z,61.80
2018-06-14T03:16:21.786Z,62.93
2018-06-14T03:18:52.147Z,62.10
2018-06-14T03:21:22.706Z,60.50
2018-06-14T03:23:53.028Z,60.73
2018-06-14T03:26:23.237Z,62.73
2018-06-14T03:28:53.482Z,60.63
2018-06-14T03:31:24.337Z,62.73
2018-06-14T03:33:55.521Z,66.10
2018-06-14T03:36:25.788Z,60.03
2018-06-14T03:38:55.926Z,59.93
2018-06-14T03:41:27.129Z,61.63
2018-06-14T03:43:57.732Z,61.07
2018-06-14T03:46:27.851Z,61.17
2018-06-14T03:48:58.177Z,62.03
2018-06-14T03:51:28.162Z,61.53
2018-06-14T03:53:58.539Z,60.73
2018-06-14T03:56:28.765Z,63.10
2018-06-14T03:58:58.886Z,60.10
2018-06-14T04:01:29.094Z,60.93
2018-06-14T04:03:59.390Z,60.80
2018-06-14T04:06:29.655Z,61.57
2018-06-14T04:08:59.892Z,62.17
2018-06-14T04:11:30.293Z,62.87
2018-06-14T04:14:00.848Z,60.07
2018-06-14T04:16:31.315Z,60.80
2018-06-14T04:19:01.619Z,60.17
2018-06-14T04:21:31.751Z,61.33
2018-06-14T04:24:02.057Z,61.10
2018-06-14T04:26:32.461Z,59.80
2018-06-14T04:29:02.612Z,61.40
2018-06-14T04:31:32.741Z,61.50
2018-06-14T04:34:02.998Z,59.80
2018-06-14T04:36:33.191Z,59.33
2018-06-14T04:39:03.391Z,61.97
2018-06-14T04:41:33.650Z,64.13
2018-06-14T04:44:04.376Z,58.80
2018-06-14T04:46:35.082Z,59.63
2018-06-14T04:49:05.118Z,62.73
2018-06-14T04:51:39.382Z,64.33
2018-06-14T04:54:11.278Z,62.87
2018-06-14T04:56:42.268Z,64.67
2018-06-14T04:59:12.741Z,63.97
2018-06-14T05:01:46.628Z,65.07
2018-06-14T05:04:17.185Z,64.53
2018-06-14T05:06:48.195Z,65.07
2018-06-14T05:09:18.340Z,63.03
2018-06-14T05:11:48.789Z,64.07
2018-06-14T05:14:20.370Z,63.37
2018-06-14T05:16:50.773Z,62.63
2018-06-14T05:19:20.990Z,63.80
2018-06-14T05:21:51.881Z,65.13
2018-06-14T05:24:22.614Z,63.83
2018-06-14T05:26:53.047Z,61.83
2018-06-14T05:29:24.309Z,64.57
2018-06-14T05:31:55.395Z,61.30
2018-06-14T05:34:25.435Z,62.97
2018-06-14T05:36:55.861Z,62.53
2018-06-14T05:39:25.933Z,66.73
2018-06-14T05:41:56.185Z,63.83
2018-06-14T05:44:26.474Z,65.80
2018-06-14T05:46:56.797Z,65.20
2018-06-14T05:49:27.144Z,65.53
2018-06-14T05:51:57.264Z,63.33
2018-06-14T05:54:28.039Z,64.97
2018-06-14T05:56:58.188Z,65.60
2018-06-14T05:59:28.550Z,67.83
2018-06-14T06:01:59.075Z,66.50
2018-06-14T06:04:29.346Z,65.47
2018-06-14T06:06:59.611Z,66.03
2018-06-14T06:09:29.775Z,65.87
2018-06-14T06:12:00.132Z,64.97
2018-06-14T06:14:31.053Z,63.50
2018-06-14T06:17:01.432Z,65.83
2018-06-14T06:19:31.564Z,66.50
2018-06-14T06:22:01.901Z,66.30
2018-06-14T06:24:32.277Z,64.17
2018-06-14T06:27:02.706Z,65.70
2018-06-14T06:29:32.499Z,65.83
2018-06-14T06:32:02.798Z,65.97
2018-06-14T06:34:32.999Z,67.00
2018-06-14T06:37:03.451Z,64.00
2018-06-14T06:39:33.637Z,67.60
2018-06-14T06:42:03.914Z,65.87
2018-06-14T06:44:34.233Z,65.83
2018-06-14T06:47:04.409Z,63.83
2018-06-14T06:49:34.785Z,68.13
2018-06-14T06:52:05.608Z,66.30
2018-06-14T06:54:35.991Z,66.17
2018-06-14T06:57:06.505Z,64.10
2018-06-14T06:59:36.740Z,65.20
2018-06-14T07:02:07.524Z,64.80
2018-06-14T07:04:38.064Z,64.80
2018-06-14T07:07:08.858Z,69.00
2018-06-14T07:09:40.381Z,71.33
2018-06-14T07:12:12.396Z,65.67
2018-06-14T07:14:43.874Z,66.03
2018-06-14T07:17:15.688Z,62.20
2018-06-14T07:19:46.047Z,65.20
2018-06-14T07:22:17.639Z,67.33
2018-06-14T07:24:47.963Z,66.00
2018-06-14T07:27:18.077Z,63.37
2018-06-14T07:29:48.942Z,67.27
2018-06-14T07:32:19.364Z,65.33
2018-06-14T07:34:49.932Z,67.57
2018-06-14T07:37:21.403Z,64.80
2018-06-14T07:39:51.623Z,65.57
2018-06-14T07:42:22.607Z,70.07
2018-06-14T07:44:52.884Z,67.97
2018-06-14T07:47:23.090Z,63.93
2018-06-14T07:49:53.223Z,67.03
2018-06-14T07:52:23.852Z,64.50
2018-06-14T07:54:54.404Z,64.53
2018-06-14T07:57:24.917Z,65.57
2018-06-14T07:59:55.426Z,66.67
2018-06-14T08:02:25.936Z,66.10
2018-06-14T08:04:57.249Z,66.63
2018-06-14T08:07:27.505Z,65.00
2018-06-14T08:09:57.992Z,68.13
2018-06-14T08:12:28.367Z,67.23
2018-06-14T08:14:58.909Z,69.50
2018-06-14T08:17:28.974Z,65.17
2018-06-14T08:20:00.154Z,65.87
2018-06-14T08:22:31.432Z,64.83
2018-06-14T08:25:01.725Z,66.10
2018-06-14T08:27:32.562Z,65.67
2018-06-14T08:30:03.927Z,64.87
2018-06-14T08:32:34.333Z,69.27
2018-06-14T08:35:04.595Z,63.90
2018-06-14T08:37:34.677Z,70.90
2018-06-14T08:40:05.557Z,65.33
2018-06-14T08:42:35.869Z,69.03
2018-06-14T08:45:06.047Z,73.37
2018-06-14T08:47:36.446Z,67.87
2018-06-14T08:50:06.793Z,71.10
2018-06-14T08:52:37.596Z,68.07
2018-06-14T08:55:08.046Z,70.93
2018-06-14T08:57:38.086Z,73.60
2018-06-14T09:00:08.612Z,74.67
2018-06-14T09:02:39.019Z,72.13
2018-06-14T09:05:09.932Z,72.83
2018-06-14T09:07:40.413Z,78.17
2018-06-14T09:10:11.334Z,72.40
2018-06-14T09:12:42.170Z,72.17
2018-06-14T09:15:12.558Z,76.00
2018-06-14T09:17:50.914Z,72.53
2018-06-14T09:20:36.522Z,76.83
2018-06-14T09:23:23.018Z,77.73
2018-06-14T09:26:02.696Z,73.23
2018-06-14T09:28:36.319Z,72.43
2018-06-14T09:31:07.609Z,74.80
2018-06-14T09:33:41.607Z,73.50
2018-06-14T09:36:22.065Z,75.20
2018-06-14T09:38:52.822Z,75.57
2018-06-14T09:41:23.815Z,74.10
2018-06-14T09:43:54.874Z,72.93
2018-06-14T09:46:25.535Z,74.70
2018-06-14T09:49:08.636Z,70.90
2018-06-14T09:51:53.801Z,74.27
2018-06-14T09:54:23.989Z,73.33
2018-06-14T09:56:54.185Z,73.20
2018-06-14T09:59:24.485Z,70.33
2018-06-14T10:01:56.836Z,73.37
2018-06-14T10:04:27.935Z,74.63
2018-06-14T10:06:59.145Z,73.80
2018-06-14T10:09:32.370Z,70.57
2018-06-14T10:12:02.598Z,72.17
2018-06-14T10:14:32.805Z,76.63
2018-06-14T10:17:03.713Z,73.17
2018-06-14T10:19:33.915Z,73.13
2018-06-14T10:22:04.481Z,71.87
2018-06-14T10:24:34.858Z,70.67
2018-06-14T10:27:05.468Z,71.27
2018-06-14T10:29:36.275Z,71.73
2018-06-14T10:32:06.687Z,72.30
2018-06-14T10:34:36.741Z,70.20
2018-06-14T10:37:06.962Z,72.63
2018-06-14T10:39:37.129Z,70.43
2018-06-14T10:42:07.584Z,73.83
2018-06-14T10:44:37.881Z,72.63
2018-06-14T10:47:08.264Z,73.37
2018-06-14T10:49:38.441Z,70.83
2018-06-14T10:52:08.734Z,71.80
2018-06-14T10:54:38.978Z,70.27
2018-06-14T10:57:09.059Z,68.37
2018-06-14T10:59:39.245Z,68.17
2018-06-14T11:02:10.073Z,71.10
2018-06-14T11:04:40.330Z,72.23
2018-06-14T11:07:11.134Z,69.53
2018-06-14T11:09:42.025Z,73.30
2018-06-14T11:12:12.454Z,67.93
2018-06-14T11:14:42.910Z,70.47
2018-06-14T11:17:12.759Z,68.27
2018-06-14T11:19:45.936Z,69.27
2018-06-14T11:22:16.311Z,69.83
2018-06-14T11:24:46.492Z,72.23
2018-06-14T11:27:16.911Z,68.73
2018-06-14T11:29:47.259Z,69.40
2018-06-14T11:32:17.584Z,72.57
2018-06-14T11:34:47.647Z,68.03
2018-06-14T11:37:18.099Z,69.07
2018-06-14T11:39:50.218Z,70.33
2018-06-14T11:42:20.592Z,69.50
2018-06-14T11:44:50.765Z,70.23
2018-06-14T11:47:21.010Z,68.23
2018-06-14T11:49:51.579Z,68.10
2018-06-14T11:52:22.189Z,69.80
2018-06-14T11:54:53.397Z,71.07
2018-06-14T11:57:23.713Z,68.07
2018-06-14T11:59:54.748Z,72.03
2018-06-14T12:02:25.525Z,67.50
2018-06-14T12:04:56.344Z,66.03
2018-06-14T12:07:26.821Z,66.73
2018-06-14T12:09:56.857Z,67.10
2018-06-14T12:12:27.330Z,66.77
2018-06-14T12:14:58.577Z,69.77
2018-06-14T12:17:28.971Z,71.57
2018-06-14T12:20:00.034Z,69.80
2018-06-14T12:22:30.479Z,67.97
2018-06-14T12:25:01.493Z,68.17
2018-06-14T12:27:32.012Z,68.27
2018-06-14T12:30:02.374Z,68.03
2018-06-14T12:32:32.785Z,69.50
2018-06-14T12:35:04.080Z,69.03
2018-06-14T12:37:34.611Z,67.90
2018-06-14T12:40:05.126Z,68.77
2018-06-14T12:42:36.033Z,67.77
2018-06-14T12:45:06.627Z,67.63
2018-06-14T12:47:39.052Z,68.13
2018-06-14T12:50:09.321Z,69.90
2018-06-14T12:52:40.264Z,71.23
2018-06-14T12:55:10.761Z,72.73
2018-06-14T12:57:40.985Z,69.53
2018-06-14T13:00:11.105Z,69.73
2018-06-14T13:02:41.380Z,70.30
2018-06-14T13:05:11.704Z,74.37
2018-06-14T13:07:42.777Z,72.13
2018-06-14T13:10:13.380Z,73.90
2018-06-14T13:12:43.879Z,69.60
2018-06-14T13:15:14.342Z,70.23
2018-06-14T13:17:44.664Z,68.80
2018-06-14T13:20:14.849Z,70.17
2018-06-14T13:22:45.073Z,73.47
2018-06-14T13:25:15.595Z,69.97
2018-06-14T13:27:45.833Z,68.70
2018-06-14T13:30:16.197Z,71.27
2018-06-14T13:32:46.470Z,72.77
2018-06-14T13:35:17.259Z,71.43
2018-06-14T13:37:47.616Z,69.73
2018-06-14T13:40:18.034Z,72.97
2018-06-14T13:42:48.341Z,71.50
2018-06-14T13:45:18.460Z,69.80
2018-06-14T13:47:49.015Z,72.30
2018-06-14T13:50:19.676Z,69.30
2018-06-14T13:52:50.039Z,74.03
2018-06-14T13:55:20.391Z,71.83
2018-06-14T13:57:50.896Z,70.83
2018-06-14T14:00:21.250Z,72.60
2018-06-14T14:02:52.612Z,73.83
2018-06-14T14:05:22.786Z,74.53
2018-06-14T14:07:53.608Z,76.87
2018-06-14T14:10:23.987Z,72.43
2018-06-14T14:12:54.415Z,76.40
2018-06-14T14:15:25.375Z,75.97
2018-06-14T14:17:56.803Z,75.33
2018-06-14T14:20:26.813Z,76.13
2018-06-14T14:22:57.167Z,80.40
2018-06-14T14:25:27.572Z,74.57
2018-06-14T14:27:58.163Z,77.87
2018-06-14T14:30:28.423Z,76.63
2018-06-14T14:32:58.695Z,78.93
2018-06-14T14:35:28.776Z,79.83
2018-06-14T14:37:59.328Z,77.73
2018-06-14T14:40:29.622Z,79.10
2018-06-14T14:43:00.366Z,79.37
2018-06-14T14:45:31.249Z,77.57
2018-06-14T14:48:01.527Z,78.00
2018-06-14T14:50:31.666Z,77.50
2018-06-14T14:53:01.997Z,77.20
2018-06-14T14:55:32.688Z,81.77
2018-06-14T14:58:03.080Z,75.30
2018-06-14T15:00:33.963Z,110.13
2018-06-14T15:03:04.335Z,75.97
2018-06-14T15:05:34.487Z,76.40
2018-06-14T15:08:04.891Z,73.50
2018-06-14T15:10:35.020Z,75.83
2018-06-14T15:13:05.574Z,75.63
2018-06-14T15:15:35.722Z,75.60
2018-06-14T15:18:06.333Z,72.77
2018-06-14T15:20:36.552Z,75.27
2018-06-14T15:23:07.352Z,75.03
2018-06-14T15:25:37.615Z,76.50
2018-06-14T15:28:07.852Z,74.27
2018-06-14T15:30:37.938Z,74.83
2018-06-14T15:33:08.380Z,75.70
2018-06-14T15:35:38.851Z,76.23
2018-06-14T15:38:09.188Z,79.70
2018-06-14T15:40:39.452Z,78.77
2018-06-14T15:43:09.992Z,77.47
2018-06-14T15:45:40.515Z,75.30
2018-06-14T15:48:11.098Z,76.17
2018-06-14T15:50:41.334Z,73.80
2018-06-14T15:53:11.820Z,75.33
2018-06-14T15:56:29.206Z,76.33
2018-06-14T15:58:59.200Z,76.93
2018-06-14T16:01:30.837Z,79.87
2018-06-14T16:04:01.196Z,77.57
2018-06-14T16:06:31.706Z,77.83
2018-06-14T16:09:10.414Z,80.90
2018-06-14T16:11:40.565Z,80.20
2018-06-14T16:14:10.775Z,78.67
2018-06-14T16:16:41.152Z,78.83
2018-06-14T16:19:11.216Z,77.37
2018-06-14T16:21:41.762Z,75.77
2018-06-14T16:24:11.938Z,76.70
2018-06-14T16:26:42.229Z,75.77
2018-06-14T16:29:12.658Z,79.23
2018-06-14T16:31:42.746Z,78.97
2018-06-14T16:34:13.094Z,78.23
2018-06-14T16:36:43.531Z,78.87
2018-06-14T16:39:14.469Z,81.90
2018-06-14T16:41:45.071Z,77.03
2018-06-14T16:44:15.354Z,77.33
2018-06-14T16:46:45.476Z,76.10
2018-06-14T16:49:16.127Z,78.23
2018-06-14T16:51:46.446Z,77.23
2018-06-14T16:54:16.840Z,81.33
2018-06-14T16:56:47.007Z,78.73
2018-06-14T16:59:17.297Z,80.80
2018-06-14T17:01:47.550Z,76.20
2018-06-14T17:04:17.669Z,83.90
2018-06-14T17:06:47.946Z,81.23
2018-06-14T17:09:18.550Z,82.27
2018-06-14T17:11:49.273Z,79.73
2018-06-14T17:14:19.419Z,79.67
2018-06-14T17:16:50.998Z,79.00
2018-06-14T17:19:21.153Z,81.17
2018-06-14T17:21:51.453Z,77.70
2018-06-14T17:24:21.535Z,79.20
2018-06-14T17:26:52.038Z,77.87
2018-06-14T17:29:22.688Z,77.63
2018-06-14T17:31:52.988Z,78.37
2018-06-14T17:34:23.308Z,79.70
2018-06-14T17:36:53.726Z,77.37
2018-06-14T17:39:23.883Z,76.33
2018-06-14T17:41:54.103Z,76.83
2018-06-14T17:44:24.400Z,80.03
2018-06-14T17:46:55.513Z,77.30
2018-06-14T17:49:25.720Z,74.50
2018-06-14T17:51:55.968Z,76.13
2018-06-14T17:54:26.111Z,77.77
2018-06-14T17:56:56.467Z,80.17
2018-06-14T17:59:26.495Z,74.97
2018-06-14T18:01:56.796Z,75.13
2018-06-14T18:04:27.286Z,77.30
2018-06-14T18:06:57.581Z,76.60
2018-06-14T18:09:28.818Z,79.93
2018-06-14T18:11:59.665Z,79.63
2018-06-14T18:14:31.679Z,77.33
2018-06-14T18:17:03.739Z,74.20
2018-06-14T18:19:35.112Z,74.60
2018-06-14T18:22:07.029Z,80.47
2018-06-14T18:24:37.286Z,75.50
2018-06-14T18:27:07.574Z,71.97
2018-06-14T18:29:38.421Z,75.87
2018-06-14T18:32:08.644Z,73.83
2018-06-14T18:34:39.234Z,79.30
2018-06-14T18:37:09.446Z,76.07
2018-06-14T18:39:39.582Z,77.70
2018-06-14T18:42:10.266Z,74.33
2018-06-14T18:44:40.438Z,76.23
2018-06-14T18:47:10.947Z,76.67
2018-06-14T18:49:42.825Z,78.63
2018-06-14T18:52:14.449Z,78.07
2018-06-14T18:54:47.567Z,76.67
2018-06-14T18:57:35.241Z,77.50
2018-06-14T19:00:05.599Z,75.37
2018-06-14T19:02:36.236Z,76.50
2018-06-14T19:05:06.586Z,76.57
2018-06-14T19:07:37.223Z,78.60
2018-06-14T19:10:08.421Z,77.30
2018-06-14T19:12:38.633Z,73.97
2018-06-14T19:15:13.117Z,76.10
2018-06-14T19:17:46.515Z,74.90
2018-06-14T19:20:23.780Z,75.17
2018-06-14T19:22:59.666Z,73.13
2018-06-14T19:25:36.160Z,70.87
2018-06-14T19:28:07.074Z,71.93
2018-06-14T19:30:39.984Z,72.63
2018-06-14T19:33:10.843Z,76.20
2018-06-14T19:35:41.028Z,71.10
2018-06-14T19:38:12.120Z,72.80
2018-06-14T19:40:44.518Z,70.40
2018-06-14T19:43:15.453Z,73.93
2018-06-14T19:45:48.528Z,71.27
2018-06-14T19:48:19.566Z,71.57
2018-06-14T19:50:50.091Z,70.50
2018-06-14T19:53:25.073Z,69.03
2018-06-14T19:55:58.013Z,71.50
2018-06-14T19:58:28.068Z,71.47
2018-06-14T20:00:58.461Z,69.20
2018-06-14T20:03:28.585Z,67.60
2018-06-14T20:06:00.759Z,67.87
2018-06-14T20:08:33.750Z,71.93
2018-06-14T20:11:06.792Z,70.47
2018-06-14T20:13:41.407Z,70.57
2018-06-14T20:16:13.657Z,70.57
2018-06-14T20:18:47.464Z,69.63
2018-06-14T20:21:17.726Z,66.03
2018-06-14T20:23:53.060Z,67.67
2018-06-14T20:26:26.646Z,69.63
2018-06-14T20:28:58.931Z,66.27
2018-06-14T20:31:31.418Z,65.60
2018-06-14T20:34:05.757Z,68.43
2018-06-14T20:36:37.938Z,68.10
2018-06-14T20:39:12.707Z,69.53
2018-06-14T20:41:46.296Z,65.60
2018-06-14T20:44:16.752Z,66.40
2018-06-14T20:46:52.100Z,64.80
2018-06-14T20:49:24.366Z,67.87
2018-06-14T20:51:57.137Z,68.87
2018-06-14T20:54:27.497Z,67.93
2018-06-14T20:56:59.683Z,68.20
2018-06-14T20:59:32.731Z,69.47
2018-06-14T21:02:02.988Z,65.93
2018-06-14T21:04:35.801Z,68.93
2018-06-14T21:07:08.048Z,69.87
2018-06-14T21:09:40.326Z,68.93
2018-06-14T21:12:10.911Z,68.53
2018-06-14T21:14:41.384Z,64.53
2018-06-14T21:17:16.140Z,65.27
2018-06-14T21:19:51.340Z,63.17
2018-06-14T21:22:24.912Z,67.67
2018-06-14T21:24:55.266Z,66.67
2018-06-14T21:27:25.563Z,69.00
2018-06-14T21:29:55.638Z,64.87
2018-06-14T21:32:25.830Z,68.43
2018-06-14T21:34:56.184Z,65.57
2018-06-14T21:37:26.378Z,64.30
2018-06-14T21:39:56.512Z,64.00
2018-06-14T21:42:26.792Z,66.43
2018-06-14T21:44:56.969Z,65.83
2018-06-14T21:47:27.398Z,70.97
2018-06-14T21:49:57.386Z,64.87
2018-06-14T21:52:27.768Z,64.83
2018-06-14T21:54:57.857Z,65.23
2018-06-14T21:57:28.527Z,64.13
2018-06-14T21:59:58.730Z,65.73
2018-06-14T22:02:29.200Z,65.27
2018-06-14T22:04:59.757Z,66.70
2018-06-14T22:07:30.142Z,64.47
2018-06-14T22:10:00.425Z,69.97
2018-06-14T22:12:30.756Z,65.43
2018-06-14T22:15:00.868Z,63.67
2018-06-14T22:17:37.889Z,62.43
2018-06-14T22:20:08.314Z,65.67
2018-06-14T22:22:38.385Z,64.33
2018-06-14T22:25:08.731Z,62.33
2018-06-14T22:27:39.502Z,64.33
2018-06-14T22:30:09.588Z,63.80
2018-06-14T22:32:40.128Z,68.83
2018-06-14T22:35:41.285Z,61.30
2018-06-14T22:38:11.421Z,63.90
2018-06-14T22:40:41.638Z,64.83
2018-06-14T22:43:11.848Z,62.90
2018-06-14T22:45:42.273Z,64.07
2018-06-14T22:48:12.300Z,65.63
2018-06-14T22:50:59.473Z,64.43
2018-06-14T22:53:29.625Z,64.73
2018-06-14T22:55:59.721Z,64.23
2018-06-14T22:58:31.391Z,66.73
2018-06-14T23:01:34.238Z,100.57
2018-06-14T23:04:05.362Z,62.57
2018-06-14T23:06:35.702Z,62.57
2018-06-14T23:10:31.287Z,67.07
2018-06-14T23:13:01.804Z,63.43
2018-06-14T23:15:32.078Z,61.93
2018-06-14T23:18:02.313Z,62.70
2018-06-14T23:20:33.351Z,59.43
2018-06-14T23:23:04.823Z,57.87
2018-06-14T23:25:35.757Z,61.40
2018-06-14T23:28:06.524Z,63.00
2018-06-14T23:30:36.962Z,66.03
2018-06-14T23:33:07.249Z,63.70
2018-06-14T23:35:37.371Z,60.67
2018-06-14T23:38:07.896Z,63.80
2018-06-14T23:40:38.918Z,61.47
2018-06-14T23:43:09.126Z,59.30
2018-06-14T23:45:39.459Z,60.30
2018-06-14T23:48:09.747Z,62.63
2018-06-14T23:50:40.272Z,65.60
2018-06-14T23:53:12.652Z,61.90
2018-06-14T23:55:43.205Z,59.97
2018-06-14T23:58:13.717Z,58.57
